Terminal Aerodrome Forecast
Issued by NWS Cleveland, OH

Home | Current Version | Previous Version | Graphics & Text | Print | Product List | Glossary Off
Versions: 1 2 3 4 5 6 7 8 9 10 11 12 13 14 15 16 17 18

000
FTUS41 KCLE 251700
TAFTOL
TAF
KTOL 251738Z 2518/2618 08012G20KT P6SM SCT060 OVC080
     FM252300 05007KT P6SM BKN100
     FM260400 01006KT P6SM SCT120 BKN250
     FM261500 01012KT P6SM SCT030=

USA.gov is the U.S. government's official web portal to all federal, state and local government web resources and services.